Sitc Xiamen — 3ELU — position and weather

sailwx.info

Track history (hours):
 
Tides and Currents Weather Stations Pressure Air Temp Water Temp Dewpoint Dewpoint Depression Visibility Wind Speed Wind Dir Waves Ship Positions

Sitc Xiamen

Last reported at 2014-Sep-21 01:34 UTC. Time now 2014-Sep-21 02:04 UTC.
Position N 37°56' E 121°37'.

Length 145 m; draft 8.1 m.

Type: Ship (hazmat cat A). MMSI: 355090000.

Date/timePositionNaut miles runAvg speedWind from/ knotsBaromVisibWave heightAir tempDewpointWater temp
2014-Sep-21 01:34N 37°56' E 121°37'1413.7
2014-Sep-21 00:33N 37°43' E 121°30'1010.1
2014-Sep-20 23:34N 37°35' E 121°23'0 0.1
2014-Sep-20 22:27N 37°35' E 121°23'0 0.0
2014-Sep-20 21:33N 37°35' E 121°23'0 0.0
2014-Sep-20 20:33N 37°35' E 121°23'0 0.0
2014-Sep-20 19:33N 37°35' E 121°23'0 0.0
2014-Sep-20 18:33N 37°35' E 121°23'0 0.0
2014-Sep-20 17:33N 37°35' E 121°23'0 0.0
2014-Sep-20 16:33N 37°35' E 121°23'0 0.0
2014-Sep-20 15:33N 37°35' E 121°23'0 0.0
2014-Sep-20 14:33N 37°35' E 121°23'0 0.0
2014-Sep-20 13:33N 37°35' E 121°23'0 0.0
2014-Sep-20 12:33N 37°35' E 121°23'0 0.0
2014-Sep-20 11:33N 37°35' E 121°23'0 0.0
2014-Sep-20 10:33N 37°35' E 121°23'3 3.2
2014-Sep-20 09:33N 37°35' E 121°27'1312.6
2014-Sep-20 08:33N 37°45' E 121°17'1515.0
2014-Sep-20 07:33N 37°55' E 121°02'16114.6
2014-Sep-19 20:32N 38°57' E 117°52'4 4.1
2014-Sep-19 19:29N 38°59' E 117°47'0 0.0
2014-Sep-19 18:29N 38°59' E 117°47'0 0.0
2014-Sep-19 17:29N 38°59' E 117°47'0 0.0
2014-Sep-19 16:29N 38°59' E 117°47'0 0.0
2014-Sep-19 15:29N 38°59' E 117°47'0 0.0
2014-Sep-19 14:23N 38°59' E 117°47'0 0.0
2014-Sep-19 13:29N 38°59' E 117°47'0 0.0
2014-Sep-19 12:29N 38°59' E 117°47'0 0.0
2014-Sep-19 11:29N 38°59' E 117°47'0 0.0
2014-Sep-19 10:29N 38°59' E 117°47'0 0.0
2014-Sep-19 09:29N 38°59' E 117°47'0 0.0
2014-Sep-19 08:29N 38°59' E 117°47'0 0.0
2014-Sep-19 07:29N 38°59' E 117°47'0 0.1
2014-Sep-19 06:33N 38°58' E 117°47'1110.8
2014-Sep-19 05:31N 38°57' E 118°01'128 6.2
2014-Sep-18 09:05N 38°04' E 120°30'3614.1
2014-Sep-18 06:33N 37°56' E 121°14'1614.3
2014-Sep-18 05:27N 37°53' E 121°34'1314.7
2014-Sep-18 04:33N 37°51' E 121°50'2914.8
2014-Sep-18 02:33N 37°45' E 122°26'1413.9
2014-Sep-18 01:34N 37°39' E 122°43'  
2014-Sep-15 08:34N 33°50' E 130°20'12 9.0
2014-Sep-15 07:15N 33°39' E 130°24'1 1.1
2014-Sep-15 06:32N 33°40' E 130°24'0 0.0
2014-Sep-15 05:32N 33°39' E 130°24'0 0.0
2014-Sep-15 04:32N 33°39' E 130°24'0 0.0
2014-Sep-15 03:32N 33°39' E 130°24'0 0.0
2014-Sep-15 02:32N 33°39' E 130°24'0 0.0
2014-Sep-15 01:32N 33°40' E 130°24'0 0.0
2014-Sep-15 00:32N 33°39' E 130°24'0 0.1
2014-Sep-14 23:32N 33°40' E 130°24'3 2.8
2014-Sep-14 22:33N 33°38' E 130°21'1111.1
2014-Sep-14 21:33N 33°44' E 130°10'1414.3
2014-Sep-14 20:33N 33°41' E 129°54'42811.5
2014-Sep-13 07:14N 31°15' E 121°57'912.6
2014-Sep-13 06:33N 31°18' E 121°47'7 7.2
2014-Sep-13 05:33N 31°20' E 121°39'0 0.0
2014-Sep-13 04:27N 31°20' E 121°39'0 0.0
2014-Sep-13 03:33N 31°20' E 121°39'0 0.0
2014-Sep-13 02:33N 31°20' E 121°39'0 0.0
2014-Sep-13 01:27N 31°20' E 121°39'0 0.0
2014-Sep-13 00:15N 31°20' E 121°39'0 0.0
2014-Sep-12 23:27N 31°20' E 121°39'0 0.0
2014-Sep-12 20:15N 31°20' E 121°39'0 0.0
2014-Sep-12 19:33N 31°20' E 121°39'0 0.0
2014-Sep-12 18:09N 31°20' E 121°39'0 0.1
2014-Sep-12 17:33N 31°20' E 121°39'5 4.6
2014-Sep-12 16:33N 31°19' E 121°45'3911.8
2014-Sep-12 13:14N 31°06' E 122°28'12 0.7
2014-Sep-11 20:23N 31°01' E 122°41'0 0.0
2014-Sep-11 18:08N 31°01' E 122°41'0 0.1
2014-Sep-11 17:29N 31°01' E 122°41'2211.4
2014-Sep-11 15:33N 31°09' E 123°04'1514.3
2014-Sep-11 14:31N 31°16' E 123°20'3115.8
2014-Sep-11 12:34N 31°27' E 123°54'2015.7
2014-Sep-11 11:19N 31°35' E 124°15'  
Track history (hours):
 
Tides and Currents Weather Stations Pressure Air Temp Water Temp Dewpoint Dewpoint Depression Visibility Wind Speed Wind Dir Waves Ship Positions

Sitc Xiamen

Last reported at 2014-Sep-21 01:34 UTC. Time now 2014-Sep-21 02:04 UTC.
Position N 37°56' E 121°37'.

Length 145 m; draft 8.1 m.

Type: Ship (hazmat cat A). MMSI: 355090000.

Date/timePositionNaut miles runAvg speedWind from/ knotsBaromVisibWave heightAir tempDewpointWater temp
2014-Sep-21 01:34N 37°56' E 121°37'1413.7
2014-Sep-21 00:33N 37°43' E 121°30'1010.1
2014-Sep-20 23:34N 37°35' E 121°23'0 0.1
2014-Sep-20 22:27N 37°35' E 121°23'0 0.0
2014-Sep-20 21:33N 37°35' E 121°23'0 0.0
2014-Sep-20 20:33N 37°35' E 121°23'0 0.0
2014-Sep-20 19:33N 37°35' E 121°23'0 0.0
2014-Sep-20 18:33N 37°35' E 121°23'0 0.0
2014-Sep-20 17:33N 37°35' E 121°23'0 0.0
2014-Sep-20 16:33N 37°35' E 121°23'0 0.0
2014-Sep-20 15:33N 37°35' E 121°23'0 0.0
2014-Sep-20 14:33N 37°35' E 121°23'0 0.0
2014-Sep-20 13:33N 37°35' E 121°23'0 0.0
2014-Sep-20 12:33N 37°35' E 121°23'0 0.0
2014-Sep-20 11:33N 37°35' E 121°23'0 0.0
2014-Sep-20 10:33N 37°35' E 121°23'3 3.2
2014-Sep-20 09:33N 37°35' E 121°27'1312.6
2014-Sep-20 08:33N 37°45' E 121°17'1515.0
2014-Sep-20 07:33N 37°55' E 121°02'16114.6
2014-Sep-19 20:32N 38°57' E 117°52'4 4.1
2014-Sep-19 19:29N 38°59' E 117°47'0 0.0
2014-Sep-19 18:29N 38°59' E 117°47'0 0.0
2014-Sep-19 17:29N 38°59' E 117°47'0 0.0
2014-Sep-19 16:29N 38°59' E 117°47'0 0.0
2014-Sep-19 15:29N 38°59' E 117°47'0 0.0
2014-Sep-19 14:23N 38°59' E 117°47'0 0.0
2014-Sep-19 13:29N 38°59' E 117°47'0 0.0
2014-Sep-19 12:29N 38°59' E 117°47'0 0.0
2014-Sep-19 11:29N 38°59' E 117°47'0 0.0
2014-Sep-19 10:29N 38°59' E 117°47'0 0.0
2014-Sep-19 09:29N 38°59' E 117°47'0 0.0
2014-Sep-19 08:29N 38°59' E 117°47'0 0.0
2014-Sep-19 07:29N 38°59' E 117°47'0 0.1
2014-Sep-19 06:33N 38°58' E 117°47'1110.8
2014-Sep-19 05:31N 38°57' E 118°01'128 6.2
2014-Sep-18 09:05N 38°04' E 120°30'3614.1
2014-Sep-18 06:33N 37°56' E 121°14'1614.3
2014-Sep-18 05:27N 37°53' E 121°34'1314.7
2014-Sep-18 04:33N 37°51' E 121°50'2914.8
2014-Sep-18 02:33N 37°45' E 122°26'1413.9
2014-Sep-18 01:34N 37°39' E 122°43'  
2014-Sep-15 08:34N 33°50' E 130°20'12 9.0
2014-Sep-15 07:15N 33°39' E 130°24'1 1.1
2014-Sep-15 06:32N 33°40' E 130°24'0 0.0
2014-Sep-15 05:32N 33°39' E 130°24'0 0.0
2014-Sep-15 04:32N 33°39' E 130°24'0 0.0
2014-Sep-15 03:32N 33°39' E 130°24'0 0.0
2014-Sep-15 02:32N 33°39' E 130°24'0 0.0
2014-Sep-15 01:32N 33°40' E 130°24'0 0.0
2014-Sep-15 00:32N 33°39' E 130°24'0 0.1
2014-Sep-14 23:32N 33°40' E 130°24'3 2.8
2014-Sep-14 22:33N 33°38' E 130°21'1111.1
2014-Sep-14 21:33N 33°44' E 130°10'1414.3
2014-Sep-14 20:33N 33°41' E 129°54'42811.5
2014-Sep-13 07:14N 31°15' E 121°57'912.6
2014-Sep-13 06:33N 31°18' E 121°47'7 7.2
2014-Sep-13 05:33N 31°20' E 121°39'0 0.0
2014-Sep-13 04:27N 31°20' E 121°39'0 0.0
2014-Sep-13 03:33N 31°20' E 121°39'0 0.0
2014-Sep-13 02:33N 31°20' E 121°39'0 0.0
2014-Sep-13 01:27N 31°20' E 121°39'0 0.0
2014-Sep-13 00:15N 31°20' E 121°39'0 0.0
2014-Sep-12 23:27N 31°20' E 121°39'0 0.0
2014-Sep-12 20:15N 31°20' E 121°39'0 0.0
2014-Sep-12 19:33N 31°20' E 121°39'0 0.0
2014-Sep-12 18:09N 31°20' E 121°39'0 0.1
2014-Sep-12 17:33N 31°20' E 121°39'5 4.6
2014-Sep-12 16:33N 31°19' E 121°45'3911.8
2014-Sep-12 13:14N 31°06' E 122°28'12 0.7
2014-Sep-11 20:23N 31°01' E 122°41'0 0.0
2014-Sep-11 18:08N 31°01' E 122°41'0 0.1
2014-Sep-11 17:29N 31°01' E 122°41'2211.4
2014-Sep-11 15:33N 31°09' E 123°04'1514.3
2014-Sep-11 14:31N 31°16' E 123°20'3115.8
2014-Sep-11 12:34N 31°27' E 123°54'2015.7
2014-Sep-11 11:19N 31°35' E 124°15'  

Dump ship's entire track history